sensor_id;sensor_type;location;lat;lon;timestamp;P1;durP1;ratioP1;P2;durP2;ratioP2
50631;SDS011;49583;45.590;-122.498;2023-07-31T00:01:14;2.00;;;1.80;;
50631;SDS011;49583;45.590;-122.498;2023-07-31T00:03:26;2.40;;;2.10;;
50631;SDS011;49583;45.590;-122.498;2023-07-31T00:05:39;3.20;;;2.30;;
50631;SDS011;49583;45.590;-122.498;2023-07-31T00:07:52;1.90;;;1.80;;
50631;SDS011;49583;45.590;-122.498;2023-07-31T00:10:05;2.00;;;1.80;;
50631;SDS011;49583;45.590;-122.498;2023-07-31T00:12:18;1.90;;;1.80;;
50631;SDS011;49583;45.590;-122.498;2023-07-31T00:14:31;4.80;;;1.90;;
50631;SDS011;49583;45.590;-122.498;2023-07-31T00:16:44;2.90;;;1.90;;
50631;SDS011;49583;45.590;-122.498;2023-07-31T00:18:58;2.50;;;2.10;;
50631;SDS011;49583;45.590;-122.498;2023-07-31T00:21:10;2.00;;;1.80;;
50631;SDS011;49583;45.590;-122.498;2023-07-31T00:23:23;2.70;;;2.10;;
50631;SDS011;49583;45.590;-122.498;2023-07-31T00:25:35;2.00;;;1.80;;
50631;SDS011;49583;45.590;-122.498;2023-07-31T00:27:48;2.50;;;1.90;;
50631;SDS011;49583;45.590;-122.498;2023-07-31T00:30:01;2.20;;;1.70;;
50631;SDS011;49583;45.590;-122.498;2023-07-31T00:32:14;2.00;;;1.50;;
50631;SDS011;49583;45.590;-122.498;2023-07-31T00:34:27;5.80;;;2.00;;
50631;SDS011;49583;45.590;-122.498;2023-07-31T00:36:39;2.80;;;2.10;;
50631;SDS011;49583;45.590;-122.498;2023-07-31T00:38:55;2.20;;;1.90;;
50631;SDS011;49583;45.590;-122.498;2023-07-31T00:41:07;7.30;;;2.10;;
50631;SDS011;49583;45.590;-122.498;2023-07-31T00:43:21;3.80;;;2.10;;
50631;SDS011;49583;45.590;-122.498;2023-07-31T00:45:34;1.90;;;1.70;;
50631;SDS011;49583;45.590;-122.498;2023-07-31T00:47:47;2.30;;;1.80;;
50631;SDS011;49583;45.590;-122.498;2023-07-31T00:50:00;2.30;;;2.10;;
50631;SDS011;49583;45.590;-122.498;2023-07-31T00:52:13;2.10;;;1.90;;
50631;SDS011;49583;45.590;-122.498;2023-07-31T00:54:26;3.30;;;2.00;;
50631;SDS011;49583;45.590;-122.498;2023-07-31T00:56:38;4.00;;;2.10;;
50631;SDS011;49583;45.590;-122.498;2023-07-31T00:58:55;2.20;;;2.00;;
50631;SDS011;49583;45.590;-122.498;2023-07-31T01:01:11;2.80;;;2.10;;
50631;SDS011;49583;45.590;-122.498;2023-07-31T01:03:23;2.50;;;2.30;;
50631;SDS011;49583;45.590;-122.498;2023-07-31T01:05:39;1.80;;;1.40;;
50631;SDS011;49583;45.590;-122.498;2023-07-31T01:08:02;2.20;;;1.70;;
50631;SDS011;49583;45.590;-122.498;2023-07-31T01:10:20;2.40;;;1.90;;
50631;SDS011;49583;45.590;-122.498;2023-07-31T01:12:36;2.30;;;2.10;;
50631;SDS011;49583;45.590;-122.498;2023-07-31T01:14:54;2.30;;;2.00;;
50631;SDS011;49583;45.590;-122.498;2023-07-31T01:17:18;2.70;;;2.00;;
50631;SDS011;49583;45.590;-122.498;2023-07-31T01:19:31;3.80;;;2.10;;
50631;SDS011;49583;45.590;-122.498;2023-07-31T01:21:49;2.40;;;1.80;;
50631;SDS011;49583;45.590;-122.498;2023-07-31T01:24:23;2.10;;;1.90;;
50631;SDS011;49583;45.590;-122.498;2023-07-31T01:26:40;2.00;;;1.80;;
50631;SDS011;49583;45.590;-122.498;2023-07-31T01:28:59;2.10;;;1.90;;
50631;SDS011;49583;45.590;-122.498;2023-07-31T01:31:18;3.10;;;2.50;;
50631;SDS011;49583;45.590;-122.498;2023-07-31T01:33:32;2.00;;;1.80;;
50631;SDS011;49583;45.590;-122.498;2023-07-31T01:35:46;2.30;;;2.00;;
50631;SDS011;49583;45.590;-122.498;2023-07-31T01:38:01;4.20;;;1.90;;
50631;SDS011;49583;45.590;-122.498;2023-07-31T01:40:14;2.00;;;1.80;;
50631;SDS011;49583;45.590;-122.498;2023-07-31T01:42:29;2.20;;;1.80;;
50631;SDS011;49583;45.590;-122.498;2023-07-31T01:44:41;2.30;;;2.00;;
50631;SDS011;49583;45.590;-122.498;2023-07-31T01:46:54;3.60;;;1.80;;
50631;SDS011;49583;45.590;-122.498;2023-07-31T01:49:07;2.60;;;2.20;;
50631;SDS011;49583;45.590;-122.498;2023-07-31T01:51:21;2.20;;;1.70;;
50631;SDS011;49583;45.590;-122.498;2023-07-31T01:53:34;2.40;;;2.10;;
50631;SDS011;49583;45.590;-122.498;2023-07-31T01:55:46;2.50;;;2.00;;
50631;SDS011;49583;45.590;-122.498;2023-07-31T01:57:59;2.80;;;2.00;;
50631;SDS011;49583;45.590;-122.498;2023-07-31T02:00:12;2.40;;;1.90;;
50631;SDS011;49583;45.590;-122.498;2023-07-31T02:02:26;2.90;;;1.50;;
50631;SDS011;49583;45.590;-122.498;2023-07-31T02:04:39;1.90;;;1.70;;
50631;SDS011;49583;45.590;-122.498;2023-07-31T02:06:52;2.30;;;1.90;;
50631;SDS011;49583;45.590;-122.498;2023-07-31T02:09:04;2.70;;;2.00;;
50631;SDS011;49583;45.590;-122.498;2023-07-31T02:11:17;2.30;;;2.10;;
50631;SDS011;49583;45.590;-122.498;2023-07-31T02:13:30;1.70;;;1.40;;
50631;SDS011;49583;45.590;-122.498;2023-07-31T02:15:43;2.30;;;1.70;;
50631;SDS011;49583;45.590;-122.498;2023-07-31T02:17:59;3.30;;;1.70;;
50631;SDS011;49583;45.590;-122.498;2023-07-31T02:20:12;2.10;;;1.80;;
50631;SDS011;49583;45.590;-122.498;2023-07-31T02:22:25;1.90;;;1.70;;
50631;SDS011;49583;45.590;-122.498;2023-07-31T02:24:38;2.80;;;2.40;;
50631;SDS011;49583;45.590;-122.498;2023-07-31T02:26:50;5.30;;;2.00;;
50631;SDS011;49583;45.590;-122.498;2023-07-31T02:29:04;1.80;;;1.70;;
50631;SDS011;49583;45.590;-122.498;2023-07-31T02:31:17;1.90;;;1.70;;
50631;SDS011;49583;45.590;-122.498;2023-07-31T02:33:30;2.50;;;2.30;;
50631;SDS011;49583;45.590;-122.498;2023-07-31T02:35:43;2.10;;;1.90;;
50631;SDS011;49583;45.590;-122.498;2023-07-31T02:37:56;2.30;;;2.10;;
50631;SDS011;49583;45.590;-122.498;2023-07-31T02:40:10;1.80;;;1.60;;
50631;SDS011;49583;45.590;-122.498;2023-07-31T02:42:24;2.10;;;1.80;;
50631;SDS011;49583;45.590;-122.498;2023-07-31T02:44:37;3.10;;;2.00;;
50631;SDS011;49583;45.590;-122.498;2023-07-31T02:46:52;2.40;;;1.50;;
50631;SDS011;49583;45.590;-122.498;2023-07-31T02:49:04;1.80;;;1.60;;
50631;SDS011;49583;45.590;-122.498;2023-07-31T02:51:17;2.20;;;1.70;;
50631;SDS011;49583;45.590;-122.498;2023-07-31T02:53:30;1.50;;;1.30;;
50631;SDS011;49583;45.590;-122.498;2023-07-31T02:55:44;6.10;;;1.60;;
50631;SDS011;49583;45.590;-122.498;2023-07-31T02:57:57;2.00;;;1.50;;
50631;SDS011;49583;45.590;-122.498;2023-07-31T03:00:10;2.20;;;1.30;;
50631;SDS011;49583;45.590;-122.498;2023-07-31T03:02:24;1.90;;;1.60;;
50631;SDS011;49583;45.590;-122.498;2023-07-31T03:04:37;1.60;;;1.30;;
50631;SDS011;49583;45.590;-122.498;2023-07-31T03:06:50;2.50;;;1.80;;
50631;SDS011;49583;45.590;-122.498;2023-07-31T03:09:03;2.30;;;1.50;;
50631;SDS011;49583;45.590;-122.498;2023-07-31T03:11:16;2.50;;;1.60;;
50631;SDS011;49583;45.590;-122.498;2023-07-31T03:13:29;2.80;;;1.60;;
50631;SDS011;49583;45.590;-122.498;2023-07-31T03:15:43;2.90;;;1.70;;
50631;SDS011;49583;45.590;-122.498;2023-07-31T03:17:56;2.00;;;1.40;;
50631;SDS011;49583;45.590;-122.498;2023-07-31T03:20:10;3.60;;;2.00;;
50631;SDS011;49583;45.590;-122.498;2023-07-31T03:22:25;3.90;;;1.60;;
50631;SDS011;49583;45.590;-122.498;2023-07-31T03:24:38;3.70;;;1.80;;
50631;SDS011;49583;45.590;-122.498;2023-07-31T03:26:51;1.90;;;1.40;;
50631;SDS011;49583;45.590;-122.498;2023-07-31T03:29:06;1.50;;;1.40;;
50631;SDS011;49583;45.590;-122.498;2023-07-31T03:31:19;3.00;;;1.50;;
50631;SDS011;49583;45.590;-122.498;2023-07-31T03:33:31;1.20;;;1.10;;
50631;SDS011;49583;45.590;-122.498;2023-07-31T03:35:44;2.20;;;1.40;;
50631;SDS011;49583;45.590;-122.498;2023-07-31T03:37:57;2.10;;;1.60;;
50631;SDS011;49583;45.590;-122.498;2023-07-31T03:40:10;1.30;;;1.10;;
50631;SDS011;49583;45.590;-122.498;2023-07-31T03:42:23;2.00;;;1.50;;
50631;SDS011;49583;45.590;-122.498;2023-07-31T03:44:36;1.80;;;1.30;;
50631;SDS011;49583;45.590;-122.498;2023-07-31T03:46:49;1.60;;;1.50;;
50631;SDS011;49583;45.590;-122.498;2023-07-31T03:49:02;1.70;;;1.00;;
50631;SDS011;49583;45.590;-122.498;2023-07-31T03:51:14;1.50;;;1.40;;
50631;SDS011;49583;45.590;-122.498;2023-07-31T03:53:27;1.50;;;1.20;;
50631;SDS011;49583;45.590;-122.498;2023-07-31T03:55:40;5.00;;;1.20;;
50631;SDS011;49583;45.590;-122.498;2023-07-31T03:57:53;2.00;;;1.50;;
50631;SDS011;49583;45.590;-122.498;2023-07-31T04:00:09;1.50;;;1.20;;
50631;SDS011;49583;45.590;-122.498;2023-07-31T04:02:22;5.10;;;1.80;;
50631;SDS011;49583;45.590;-122.498;2023-07-31T04:04:35;4.60;;;2.10;;
50631;SDS011;49583;45.590;-122.498;2023-07-31T04:06:48;2.60;;;1.40;;
50631;SDS011;49583;45.590;-122.498;2023-07-31T04:09:01;2.00;;;1.10;;
50631;SDS011;49583;45.590;-122.498;2023-07-31T04:11:14;1.70;;;1.40;;
50631;SDS011;49583;45.590;-122.498;2023-07-31T04:13:26;3.70;;;1.80;;
50631;SDS011;49583;45.590;-122.498;2023-07-31T04:15:41;3.60;;;1.60;;
50631;SDS011;49583;45.590;-122.498;2023-07-31T04:17:58;3.20;;;1.90;;
50631;SDS011;49583;45.590;-122.498;2023-07-31T04:20:11;2.60;;;1.70;;
50631;SDS011;49583;45.590;-122.498;2023-07-31T04:22:24;1.60;;;1.30;;
50631;SDS011;49583;45.590;-122.498;2023-07-31T04:24:37;5.40;;;1.50;;
50631;SDS011;49583;45.590;-122.498;2023-07-31T04:26:49;2.40;;;1.30;;
50631;SDS011;49583;45.590;-122.498;2023-07-31T04:29:02;2.40;;;1.40;;
50631;SDS011;49583;45.590;-122.498;2023-07-31T04:31:15;2.90;;;1.10;;
50631;SDS011;49583;45.590;-122.498;2023-07-31T04:33:27;2.20;;;1.10;;
50631;SDS011;49583;45.590;-122.498;2023-07-31T04:35:40;3.60;;;1.00;;
50631;SDS011;49583;45.590;-122.498;2023-07-31T04:38:00;2.30;;;1.30;;
50631;SDS011;49583;45.590;-122.498;2023-07-31T04:40:13;1.00;;;0.90;;
50631;SDS011;49583;45.590;-122.498;2023-07-31T04:42:26;1.50;;;0.90;;
50631;SDS011;49583;45.590;-122.498;2023-07-31T04:44:38;4.70;;;1.30;;
50631;SDS011;49583;45.590;-122.498;2023-07-31T04:46:51;1.10;;;0.80;;
50631;SDS011;49583;45.590;-122.498;2023-07-31T04:49:04;1.40;;;1.30;;
50631;SDS011;49583;45.590;-122.498;2023-07-31T04:51:17;1.20;;;1.00;;
50631;SDS011;49583;45.590;-122.498;2023-07-31T04:53:31;7.10;;;1.50;;
50631;SDS011;49583;45.590;-122.498;2023-07-31T04:55:43;2.10;;;1.10;;
50631;SDS011;49583;45.590;-122.498;2023-07-31T04:57:57;2.70;;;1.10;;
50631;SDS011;49583;45.590;-122.498;2023-07-31T05:00:11;0.90;;;0.90;;
50631;SDS011;49583;45.590;-122.498;2023-07-31T05:02:24;1.10;;;1.00;;
50631;SDS011;49583;45.590;-122.498;2023-07-31T05:04:36;4.70;;;1.20;;
50631;SDS011;49583;45.590;-122.498;2023-07-31T05:06:49;3.10;;;1.20;;
50631;SDS011;49583;45.590;-122.498;2023-07-31T05:09:02;3.90;;;1.70;;
50631;SDS011;49583;45.590;-122.498;2023-07-31T05:11:16;3.10;;;1.00;;
50631;SDS011;49583;45.590;-122.498;2023-07-31T05:13:29;1.30;;;1.10;;
50631;SDS011;49583;45.590;-122.498;2023-07-31T05:15:42;2.40;;;1.20;;
50631;SDS011;49583;45.590;-122.498;2023-07-31T05:17:57;1.40;;;1.00;;
50631;SDS011;49583;45.590;-122.498;2023-07-31T05:20:10;1.30;;;1.20;;
50631;SDS011;49583;45.590;-122.498;2023-07-31T05:22:24;2.30;;;0.90;;
50631;SDS011;49583;45.590;-122.498;2023-07-31T05:24:37;1.30;;;0.90;;
50631;SDS011;49583;45.590;-122.498;2023-07-31T05:26:49;4.70;;;1.10;;
50631;SDS011;49583;45.590;-122.498;2023-07-31T05:29:02;1.80;;;0.90;;
50631;SDS011;49583;45.590;-122.498;2023-07-31T05:31:17;1.10;;;0.90;;
50631;SDS011;49583;45.590;-122.498;2023-07-31T05:33:30;3.70;;;1.10;;
50631;SDS011;49583;45.590;-122.498;2023-07-31T05:35:43;1.10;;;1.00;;
50631;SDS011;49583;45.590;-122.498;2023-07-31T05:37:55;0.80;;;0.80;;
50631;SDS011;49583;45.590;-122.498;2023-07-31T05:40:09;2.70;;;1.00;;
50631;SDS011;49583;45.590;-122.498;2023-07-31T05:42:22;1.30;;;1.00;;
50631;SDS011;49583;45.590;-122.498;2023-07-31T05:44:35;1.40;;;1.20;;
50631;SDS011;49583;45.590;-122.498;2023-07-31T05:46:47;1.50;;;1.00;;
50631;SDS011;49583;45.590;-122.498;2023-07-31T05:49:00;0.90;;;0.80;;
50631;SDS011;49583;45.590;-122.498;2023-07-31T05:51:13;1.60;;;1.20;;
50631;SDS011;49583;45.590;-122.498;2023-07-31T05:53:26;1.60;;;1.00;;
50631;SDS011;49583;45.590;-122.498;2023-07-31T05:55:38;1.00;;;0.90;;
50631;SDS011;49583;45.590;-122.498;2023-07-31T05:57:51;1.90;;;0.90;;
50631;SDS011;49583;45.590;-122.498;2023-07-31T06:00:07;1.30;;;0.80;;
50631;SDS011;49583;45.590;-122.498;2023-07-31T06:02:22;1.30;;;1.00;;
50631;SDS011;49583;45.590;-122.498;2023-07-31T06:04:35;1.30;;;1.00;;
50631;SDS011;49583;45.590;-122.498;2023-07-31T06:06:47;1.00;;;0.90;;
50631;SDS011;49583;45.590;-122.498;2023-07-31T06:09:00;2.50;;;0.90;;
50631;SDS011;49583;45.590;-122.498;2023-07-31T06:11:13;2.20;;;0.90;;
50631;SDS011;49583;45.590;-122.498;2023-07-31T06:13:26;1.00;;;0.90;;
50631;SDS011;49583;45.590;-122.498;2023-07-31T06:15:39;1.10;;;1.00;;
50631;SDS011;49583;45.590;-122.498;2023-07-31T06:17:51;2.30;;;1.00;;
50631;SDS011;49583;45.590;-122.498;2023-07-31T06:20:05;1.60;;;1.20;;
50631;SDS011;49583;45.590;-122.498;2023-07-31T06:22:21;1.80;;;1.10;;
50631;SDS011;49583;45.590;-122.498;2023-07-31T06:24:33;1.10;;;0.90;;
50631;SDS011;49583;45.590;-122.498;2023-07-31T06:26:46;1.10;;;0.90;;
50631;SDS011;49583;45.590;-122.498;2023-07-31T06:28:59;2.30;;;1.20;;
50631;SDS011;49583;45.590;-122.498;2023-07-31T06:31:11;3.40;;;0.90;;
50631;SDS011;49583;45.590;-122.498;2023-07-31T06:33:27;2.90;;;1.00;;
50631;SDS011;49583;45.590;-122.498;2023-07-31T06:35:40;3.10;;;1.30;;
50631;SDS011;49583;45.590;-122.498;2023-07-31T06:37:53;2.30;;;0.80;;
50631;SDS011;49583;45.590;-122.498;2023-07-31T06:40:06;1.50;;;1.00;;
50631;SDS011;49583;45.590;-122.498;2023-07-31T06:42:20;2.40;;;1.00;;
50631;SDS011;49583;45.590;-122.498;2023-07-31T06:44:33;2.50;;;1.20;;
50631;SDS011;49583;45.590;-122.498;2023-07-31T06:46:45;2.20;;;0.80;;
50631;SDS011;49583;45.590;-122.498;2023-07-31T06:48:58;1.80;;;1.20;;
50631;SDS011;49583;45.590;-122.498;2023-07-31T06:51:11;1.60;;;1.10;;
50631;SDS011;49583;45.590;-122.498;2023-07-31T06:53:24;2.90;;;1.20;;
50631;SDS011;49583;45.590;-122.498;2023-07-31T06:55:36;1.70;;;1.20;;
50631;SDS011;49583;45.590;-122.498;2023-07-31T06:57:50;1.30;;;1.20;;
50631;SDS011;49583;45.590;-122.498;2023-07-31T07:00:04;1.70;;;0.90;;
50631;SDS011;49583;45.590;-122.498;2023-07-31T07:02:19;2.30;;;1.20;;
50631;SDS011;49583;45.590;-122.498;2023-07-31T07:04:32;2.30;;;1.20;;
50631;SDS011;49583;45.590;-122.498;2023-07-31T07:06:44;1.60;;;1.00;;
50631;SDS011;49583;45.590;-122.498;2023-07-31T07:08:57;1.40;;;1.00;;
50631;SDS011;49583;45.590;-122.498;2023-07-31T07:11:10;1.80;;;1.20;;
50631;SDS011;49583;45.590;-122.498;2023-07-31T07:13:23;2.30;;;1.20;;
50631;SDS011;49583;45.590;-122.498;2023-07-31T07:15:36;0.90;;;0.80;;
50631;SDS011;49583;45.590;-122.498;2023-07-31T07:17:48;1.60;;;1.10;;
50631;SDS011;49583;45.590;-122.498;2023-07-31T07:20:01;2.10;;;1.10;;
50631;SDS011;49583;45.590;-122.498;2023-07-31T07:22:15;2.50;;;1.10;;
50631;SDS011;49583;45.590;-122.498;2023-07-31T07:24:29;1.00;;;0.80;;
50631;SDS011;49583;45.590;-122.498;2023-07-31T07:26:41;1.80;;;1.10;;
50631;SDS011;49583;45.590;-122.498;2023-07-31T07:28:54;2.90;;;1.10;;
50631;SDS011;49583;45.590;-122.498;2023-07-31T07:31:09;1.80;;;1.10;;
50631;SDS011;49583;45.590;-122.498;2023-07-31T07:33:22;2.40;;;0.80;;
50631;SDS011;49583;45.590;-122.498;2023-07-31T07:35:35;1.80;;;1.00;;
50631;SDS011;49583;45.590;-122.498;2023-07-31T07:37:48;2.10;;;1.00;;
50631;SDS011;49583;45.590;-122.498;2023-07-31T07:40:01;2.20;;;1.00;;
50631;SDS011;49583;45.590;-122.498;2023-07-31T07:42:14;1.30;;;0.80;;
50631;SDS011;49583;45.590;-122.498;2023-07-31T07:44:27;7.00;;;1.30;;
50631;SDS011;49583;45.590;-122.498;2023-07-31T07:46:40;2.10;;;1.20;;
50631;SDS011;49583;45.590;-122.498;2023-07-31T07:48:53;1.50;;;1.00;;
50631;SDS011;49583;45.590;-122.498;2023-07-31T07:51:07;1.70;;;1.20;;
50631;SDS011;49583;45.590;-122.498;2023-07-31T07:53:19;3.40;;;1.00;;
50631;SDS011;49583;45.590;-122.498;2023-07-31T07:55:32;1.20;;;0.90;;
50631;SDS011;49583;45.590;-122.498;2023-07-31T07:57:45;2.20;;;1.10;;
50631;SDS011;49583;45.590;-122.498;2023-07-31T07:59:58;1.30;;;1.10;;
50631;SDS011;49583;45.590;-122.498;2023-07-31T08:02:18;2.70;;;1.30;;
50631;SDS011;49583;45.590;-122.498;2023-07-31T08:04:31;2.00;;;1.20;;
50631;SDS011;49583;45.590;-122.498;2023-07-31T08:06:44;1.90;;;1.10;;
50631;SDS011;49583;45.590;-122.498;2023-07-31T08:08:57;1.80;;;1.10;;
50631;SDS011;49583;45.590;-122.498;2023-07-31T08:11:13;1.30;;;1.10;;
50631;SDS011;49583;45.590;-122.498;2023-07-31T08:13:26;1.30;;;1.20;;
50631;SDS011;49583;45.590;-122.498;2023-07-31T08:15:39;3.00;;;1.50;;
50631;SDS011;49583;45.590;-122.498;2023-07-31T08:17:53;2.30;;;1.10;;
50631;SDS011;49583;45.590;-122.498;2023-07-31T08:20:07;1.70;;;1.00;;
50631;SDS011;49583;45.590;-122.498;2023-07-31T08:22:22;1.70;;;1.00;;
50631;SDS011;49583;45.590;-122.498;2023-07-31T08:24:34;1.60;;;1.40;;
50631;SDS011;49583;45.590;-122.498;2023-07-31T08:26:47;2.10;;;1.10;;
50631;SDS011;49583;45.590;-122.498;2023-07-31T08:28:59;2.00;;;1.20;;
50631;SDS011;49583;45.590;-122.498;2023-07-31T08:31:13;3.10;;;1.20;;
50631;SDS011;49583;45.590;-122.498;2023-07-31T08:33:25;1.80;;;1.10;;
50631;SDS011;49583;45.590;-122.498;2023-07-31T08:35:38;1.80;;;1.40;;
50631;SDS011;49583;45.590;-122.498;2023-07-31T08:37:51;2.90;;;1.40;;
50631;SDS011;49583;45.590;-122.498;2023-07-31T08:40:04;15.20;;;1.70;;
50631;SDS011;49583;45.590;-122.498;2023-07-31T08:42:18;1.30;;;1.00;;
50631;SDS011;49583;45.590;-122.498;2023-07-31T08:44:31;2.40;;;1.00;;
50631;SDS011;49583;45.590;-122.498;2023-07-31T08:46:44;1.90;;;1.20;;
50631;SDS011;49583;45.590;-122.498;2023-07-31T08:48:58;1.10;;;1.00;;
50631;SDS011;49583;45.590;-122.498;2023-07-31T08:51:14;1.30;;;1.20;;
50631;SDS011;49583;45.590;-122.498;2023-07-31T08:53:26;1.20;;;1.10;;
50631;SDS011;49583;45.590;-122.498;2023-07-31T08:55:39;2.50;;;1.30;;
50631;SDS011;49583;45.590;-122.498;2023-07-31T08:57:53;1.10;;;0.90;;
50631;SDS011;49583;45.590;-122.498;2023-07-31T09:00:07;1.30;;;1.00;;
50631;SDS011;49583;45.590;-122.498;2023-07-31T09:02:21;1.90;;;1.20;;
50631;SDS011;49583;45.590;-122.498;2023-07-31T09:04:38;1.40;;;1.20;;
50631;SDS011;49583;45.590;-122.498;2023-07-31T09:06:51;3.10;;;1.20;;
50631;SDS011;49583;45.590;-122.498;2023-07-31T09:09:10;2.30;;;1.20;;
50631;SDS011;49583;45.590;-122.498;2023-07-31T09:11:23;2.10;;;1.10;;
50631;SDS011;49583;45.590;-122.498;2023-07-31T09:13:36;1.50;;;1.00;;
50631;SDS011;49583;45.590;-122.498;2023-07-31T09:15:52;2.50;;;1.10;;
50631;SDS011;49583;45.590;-122.498;2023-07-31T09:18:05;3.50;;;1.20;;
50631;SDS011;49583;45.590;-122.498;2023-07-31T09:20:19;2.40;;;1.80;;
50631;SDS011;49583;45.590;-122.498;2023-07-31T09:22:35;1.70;;;1.20;;
50631;SDS011;49583;45.590;-122.498;2023-07-31T09:24:49;2.10;;;1.20;;
50631;SDS011;49583;45.590;-122.498;2023-07-31T09:27:01;1.40;;;1.10;;
50631;SDS011;49583;45.590;-122.498;2023-07-31T09:29:20;2.10;;;1.10;;
50631;SDS011;49583;45.590;-122.498;2023-07-31T09:31:37;1.50;;;1.30;;
50631;SDS011;49583;45.590;-122.498;2023-07-31T09:33:55;1.60;;;1.10;;
50631;SDS011;49583;45.590;-122.498;2023-07-31T09:36:08;1.90;;;1.50;;
50631;SDS011;49583;45.590;-122.498;2023-07-31T09:38:20;1.70;;;1.20;;
50631;SDS011;49583;45.590;-122.498;2023-07-31T09:40:34;2.70;;;1.40;;
50631;SDS011;49583;45.590;-122.498;2023-07-31T09:42:49;3.30;;;1.30;;
50631;SDS011;49583;45.590;-122.498;2023-07-31T09:45:08;2.60;;;1.60;;
50631;SDS011;49583;45.590;-122.498;2023-07-31T09:47:30;4.60;;;1.30;;
50631;SDS011;49583;45.590;-122.498;2023-07-31T09:49:47;2.00;;;1.10;;
50631;SDS011;49583;45.590;-122.498;2023-07-31T09:52:00;1.30;;;1.20;;
50631;SDS011;49583;45.590;-122.498;2023-07-31T09:54:21;2.90;;;1.30;;
50631;SDS011;49583;45.590;-122.498;2023-07-31T09:56:35;2.80;;;1.10;;
50631;SDS011;49583;45.590;-122.498;2023-07-31T09:58:50;1.30;;;1.20;;
50631;SDS011;49583;45.590;-122.498;2023-07-31T10:01:03;2.50;;;1.40;;
50631;SDS011;49583;45.590;-122.498;2023-07-31T10:03:16;2.70;;;1.40;;
50631;SDS011;49583;45.590;-122.498;2023-07-31T10:05:30;2.80;;;1.60;;
50631;SDS011;49583;45.590;-122.498;2023-07-31T10:07:45;1.50;;;1.20;;
50631;SDS011;49583;45.590;-122.498;2023-07-31T10:10:04;2.60;;;1.40;;
50631;SDS011;49583;45.590;-122.498;2023-07-31T10:12:18;1.50;;;1.10;;
50631;SDS011;49583;45.590;-122.498;2023-07-31T10:14:35;1.60;;;1.20;;
50631;SDS011;49583;45.590;-122.498;2023-07-31T10:16:49;1.80;;;1.10;;
50631;SDS011;49583;45.590;-122.498;2023-07-31T10:19:02;1.90;;;1.30;;
50631;SDS011;49583;45.590;-122.498;2023-07-31T10:21:16;1.90;;;1.30;;
50631;SDS011;49583;45.590;-122.498;2023-07-31T10:23:28;3.20;;;1.40;;
50631;SDS011;49583;45.590;-122.498;2023-07-31T10:25:41;2.00;;;1.70;;
50631;SDS011;49583;45.590;-122.498;2023-07-31T10:27:55;2.90;;;1.50;;
50631;SDS011;49583;45.590;-122.498;2023-07-31T10:30:11;1.40;;;1.30;;
50631;SDS011;49583;45.590;-122.498;2023-07-31T10:32:26;1.60;;;1.40;;
50631;SDS011;49583;45.590;-122.498;2023-07-31T10:34:40;1.70;;;1.50;;
50631;SDS011;49583;45.590;-122.498;2023-07-31T10:36:58;2.40;;;1.20;;
50631;SDS011;49583;45.590;-122.498;2023-07-31T10:39:38;3.10;;;1.30;;
50631;SDS011;49583;45.590;-122.498;2023-07-31T10:41:50;2.10;;;1.40;;
50631;SDS011;49583;45.590;-122.498;2023-07-31T10:44:03;1.60;;;1.30;;
50631;SDS011;49583;45.590;-122.498;2023-07-31T10:46:16;3.90;;;1.60;;
50631;SDS011;49583;45.590;-122.498;2023-07-31T10:48:29;4.30;;;1.70;;
50631;SDS011;49583;45.590;-122.498;2023-07-31T10:50:48;1.90;;;1.30;;
50631;SDS011;49583;45.590;-122.498;2023-07-31T10:53:02;1.90;;;1.40;;
50631;SDS011;49583;45.590;-122.498;2023-07-31T10:55:24;1.60;;;1.40;;
50631;SDS011;49583;45.590;-122.498;2023-07-31T10:57:38;2.00;;;1.40;;
50631;SDS011;49583;45.590;-122.498;2023-07-31T10:59:53;1.70;;;1.30;;
50631;SDS011;49583;45.590;-122.498;2023-07-31T11:02:33;3.50;;;1.40;;
50631;SDS011;49583;45.590;-122.498;2023-07-31T11:04:46;1.80;;;1.50;;
50631;SDS011;49583;45.590;-122.498;2023-07-31T11:09:29;1.60;;;1.00;;
50631;SDS011;49583;45.590;-122.498;2023-07-31T11:11:43;1.80;;;1.30;;
50631;SDS011;49583;45.590;-122.498;2023-07-31T11:13:59;3.40;;;1.80;;
50631;SDS011;49583;45.590;-122.498;2023-07-31T11:16:12;3.20;;;1.30;;
50631;SDS011;49583;45.590;-122.498;2023-07-31T11:18:26;3.90;;;2.10;;
50631;SDS011;49583;45.590;-122.498;2023-07-31T11:20:38;1.90;;;1.70;;
50631;SDS011;49583;45.590;-122.498;2023-07-31T11:22:51;3.20;;;1.80;;
50631;SDS011;49583;45.590;-122.498;2023-07-31T11:25:08;2.20;;;1.40;;
50631;SDS011;49583;45.590;-122.498;2023-07-31T11:27:21;3.30;;;1.60;;
50631;SDS011;49583;45.590;-122.498;2023-07-31T11:29:36;2.60;;;1.70;;
50631;SDS011;49583;45.590;-122.498;2023-07-31T11:31:49;1.90;;;1.60;;
50631;SDS011;49583;45.590;-122.498;2023-07-31T11:34:08;2.30;;;1.30;;
50631;SDS011;49583;45.590;-122.498;2023-07-31T11:36:21;3.20;;;1.70;;
50631;SDS011;49583;45.590;-122.498;2023-07-31T11:38:33;3.20;;;1.60;;
50631;SDS011;49583;45.590;-122.498;2023-07-31T11:40:46;2.10;;;1.20;;
50631;SDS011;49583;45.590;-122.498;2023-07-31T11:43:02;1.80;;;1.60;;
50631;SDS011;49583;45.590;-122.498;2023-07-31T11:45:16;1.80;;;1.70;;
50631;SDS011;49583;45.590;-122.498;2023-07-31T11:47:28;2.70;;;1.50;;
50631;SDS011;49583;45.590;-122.498;2023-07-31T11:49:45;2.20;;;1.90;;
50631;SDS011;49583;45.590;-122.498;2023-07-31T11:51:58;1.70;;;1.30;;
50631;SDS011;49583;45.590;-122.498;2023-07-31T11:54:11;1.60;;;1.40;;
50631;SDS011;49583;45.590;-122.498;2023-07-31T11:56:24;2.60;;;1.70;;
50631;SDS011;49583;45.590;-122.498;2023-07-31T11:58:38;1.70;;;1.60;;
50631;SDS011;49583;45.590;-122.498;2023-07-31T12:00:52;3.40;;;1.80;;
50631;SDS011;49583;45.590;-122.498;2023-07-31T12:03:06;2.30;;;1.50;;
50631;SDS011;49583;45.590;-122.498;2023-07-31T12:05:20;3.20;;;1.90;;
50631;SDS011;49583;45.590;-122.498;2023-07-31T12:07:50;3.90;;;1.80;;
50631;SDS011;49583;45.590;-122.498;2023-07-31T12:10:03;1.80;;;1.50;;
50631;SDS011;49583;45.590;-122.498;2023-07-31T12:12:18;2.00;;;1.80;;
50631;SDS011;49583;45.590;-122.498;2023-07-31T12:14:32;1.90;;;1.20;;
50631;SDS011;49583;45.590;-122.498;2023-07-31T12:16:54;3.40;;;1.60;;
50631;SDS011;49583;45.590;-122.498;2023-07-31T12:19:09;2.30;;;1.30;;
50631;SDS011;49583;45.590;-122.498;2023-07-31T12:21:21;2.70;;;1.90;;
50631;SDS011;49583;45.590;-122.498;2023-07-31T12:23:37;2.80;;;1.80;;
50631;SDS011;49583;45.590;-122.498;2023-07-31T12:25:54;2.70;;;1.70;;
50631;SDS011;49583;45.590;-122.498;2023-07-31T12:28:12;1.60;;;1.40;;
50631;SDS011;49583;45.590;-122.498;2023-07-31T12:30:28;3.40;;;1.60;;
50631;SDS011;49583;45.590;-122.498;2023-07-31T12:32:42;2.40;;;1.70;;
50631;SDS011;49583;45.590;-122.498;2023-07-31T12:34:54;6.70;;;1.50;;
50631;SDS011;49583;45.590;-122.498;2023-07-31T12:37:11;12.00;;;2.40;;
50631;SDS011;49583;45.590;-122.498;2023-07-31T12:39:24;3.00;;;2.10;;
50631;SDS011;49583;45.590;-122.498;2023-07-31T12:41:37;1.80;;;1.70;;
50631;SDS011;49583;45.590;-122.498;2023-07-31T12:43:49;1.90;;;1.70;;
50631;SDS011;49583;45.590;-122.498;2023-07-31T12:46:02;2.70;;;1.70;;
50631;SDS011;49583;45.590;-122.498;2023-07-31T12:48:15;2.30;;;1.80;;
50631;SDS011;49583;45.590;-122.498;2023-07-31T12:50:28;2.90;;;1.90;;
50631;SDS011;49583;45.590;-122.498;2023-07-31T12:52:40;4.70;;;2.10;;
50631;SDS011;49583;45.590;-122.498;2023-07-31T12:54:53;2.90;;;2.10;;